createdAt,value
2019-05-03T00:02:24.893Z,81.30
2019-05-03T00:05:17.501Z,80.90
2019-05-03T00:07:52.643Z,81.30
2019-05-03T00:10:25.772Z,81.70
2019-05-03T00:12:58.901Z,81.00
2019-05-03T00:15:33.343Z,81.30
2019-05-03T00:18:06.310Z,82.60
2019-05-03T00:20:39.445Z,81.00
2019-05-03T00:23:12.221Z,80.90
2019-05-03T00:25:45.241Z,79.40
2019-05-03T00:28:18.170Z,78.80
2019-05-03T00:30:51.843Z,78.00
2019-05-03T00:33:25.111Z,77.30
2019-05-03T00:35:59.689Z,78.70
2019-05-03T00:38:32.700Z,77.50
2019-05-03T00:41:06.536Z,79.30
2019-05-03T00:43:39.509Z,79.40
2019-05-03T00:46:12.710Z,79.00
2019-05-03T00:48:45.829Z,79.90
2019-05-03T00:51:18.820Z,79.50
2019-05-03T00:53:53.091Z,80.70
2019-05-03T00:56:26.509Z,78.60
2019-05-03T00:59:02.035Z,79.50
2019-05-03T01:01:34.740Z,79.40
2019-05-03T01:04:07.607Z,79.50
2019-05-03T01:06:42.357Z,81.10
2019-05-03T01:09:16.770Z,80.50
2019-05-03T01:11:49.800Z,80.70
2019-05-03T01:14:22.701Z,81.00
2019-05-03T01:16:55.720Z,81.40
2019-05-03T01:19:28.620Z,81.60
2019-05-03T01:22:01.978Z,81.20
2019-05-03T01:24:35.181Z,82.70
2019-05-03T01:27:07.843Z,81.90
2019-05-03T01:29:42.436Z,83.80
2019-05-03T01:32:15.229Z,82.40
2019-05-03T01:34:48.190Z,83.30
2019-05-03T01:37:22.654Z,83.40
2019-05-03T01:39:55.840Z,83.20
2019-05-03T01:42:29.060Z,83.90
2019-05-03T01:45:02.131Z,83.80
2019-05-03T01:47:52.729Z,83.70
2019-05-03T01:50:31.901Z,82.90
2019-05-03T01:53:09.021Z,82.90
2019-05-03T01:55:54.401Z,82.60
2019-05-03T01:58:27.400Z,80.50
2019-05-03T02:01:07.989Z,82.90
2019-05-03T02:03:42.463Z,83.60
2019-05-03T02:06:15.321Z,81.20
2019-05-03T02:08:48.469Z,80.60
2019-05-03T02:11:22.228Z,80.90
2019-05-03T02:13:55.460Z,81.20
2019-05-03T02:16:28.400Z,81.00
2019-05-03T02:19:02.479Z,81.80
2019-05-03T02:21:35.837Z,82.00
2019-05-03T02:24:08.569Z,81.80
2019-05-03T02:26:42.542Z,82.20
2019-05-03T02:29:15.620Z,81.90
2019-05-03T02:31:48.623Z,82.40
2019-05-03T02:34:23.877Z,82.30
2019-05-03T02:36:56.240Z,83.10
2019-05-03T02:39:29.249Z,84.10
2019-05-03T02:42:07.856Z,83.80
2019-05-03T02:44:38.251Z,85.00
2019-05-03T02:47:26.528Z,84.60
2019-05-03T02:50:05.839Z,84.00
2019-05-03T02:52:38.364Z,84.50
2019-05-03T02:55:11.293Z,82.90
2019-05-03T02:57:46.686Z,82.70
2019-05-03T03:00:18.981Z,82.70
2019-05-03T03:02:51.861Z,83.20
2019-05-03T03:05:25.256Z,83.70
2019-05-03T03:07:58.471Z,83.60
2019-05-03T03:10:31.681Z,85.20
2019-05-03T03:13:05.970Z,84.90
2019-05-03T03:15:39.291Z,85.70
2019-05-03T03:18:12.217Z,86.00
2019-05-03T03:20:45.161Z,86.10
2019-05-03T03:23:18.117Z,86.90
2019-05-03T03:25:51.201Z,84.40
2019-05-03T03:28:25.282Z,84.90
2019-05-03T03:30:58.466Z,87.50
2019-05-03T03:33:31.522Z,87.00
2019-05-03T03:36:31.861Z,86.30
2019-05-03T03:38:40.041Z,86.50
2019-05-03T03:41:16.166Z,86.90
2019-05-03T03:43:48.682Z,86.90
2019-05-03T03:46:21.689Z,87.90
2019-05-03T03:48:55.962Z,88.00
2019-05-03T03:51:29.130Z,87.00
2019-05-03T03:54:02.110Z,88.00
2019-05-03T03:56:40.900Z,87.90
2019-05-03T03:59:09.560Z,88.40
2019-05-03T04:01:42.501Z,90.10
2019-05-03T04:04:16.008Z,89.70
2019-05-03T04:06:49.242Z,89.20
2019-05-03T04:09:22.162Z,89.10
2019-05-03T04:11:56.805Z,88.40
2019-05-03T04:14:31.283Z,89.90
2019-05-03T04:17:22.023Z,90.50
2019-05-03T04:19:56.591Z,89.40
2019-05-03T04:22:29.549Z,89.10
2019-05-03T04:25:02.560Z,90.10
2019-05-03T04:27:36.427Z,89.70
2019-05-03T04:30:09.469Z,90.30
2019-05-03T04:32:42.361Z,90.10
2019-05-03T04:35:16.316Z,90.10
2019-05-03T04:37:49.725Z,89.50
2019-05-03T04:40:22.559Z,89.70
2019-05-03T04:42:55.942Z,90.50
2019-05-03T04:45:29.152Z,90.60
2019-05-03T04:48:02.071Z,90.90
2019-05-03T04:50:36.761Z,91.00
2019-05-03T04:53:09.380Z,90.60
2019-05-03T04:55:42.264Z,91.10
2019-05-03T04:58:16.199Z,92.30
2019-05-03T05:00:49.382Z,92.20
2019-05-03T05:03:22.569Z,92.00
2019-05-03T05:05:59.330Z,91.80
2019-05-03T05:08:29.860Z,92.00
2019-05-03T05:11:05.197Z,92.20
2019-05-03T05:13:37.433Z,92.20
2019-05-03T05:16:10.243Z,92.50
2019-05-03T05:18:45.747Z,92.90
2019-05-03T05:21:25.127Z,92.90
2019-05-03T05:24:02.105Z,93.50
2019-05-03T05:26:36.590Z,94.10
2019-05-03T05:29:11.050Z,94.30
2019-05-03T05:31:44.651Z,94.50
2019-05-03T05:34:17.940Z,94.70
2019-05-03T05:36:50.980Z,94.90
2019-05-03T05:39:24.460Z,95.20
2019-05-03T05:41:57.580Z,95.30
2019-05-03T05:44:30.460Z,95.90
2019-05-03T05:47:05.094Z,96.00
2019-05-03T05:49:51.841Z,96.70
2019-05-03T05:52:24.734Z,97.70
2019-05-03T05:55:15.502Z,98.40
2019-05-03T05:58:01.850Z,99.70
2019-05-03T06:00:32.581Z,99.90
2019-05-03T06:03:05.449Z,99.90
2019-05-03T06:05:38.565Z,99.90
2019-05-03T06:08:15.848Z,99.90
2019-05-03T06:10:56.189Z,99.90
2019-05-03T06:13:34.454Z,99.90
2019-05-03T06:16:19.401Z,99.90
2019-05-03T06:18:52.133Z,99.90
2019-05-03T06:21:32.751Z,99.90
2019-05-03T06:24:19.149Z,99.60
2019-05-03T06:26:54.709Z,99.90
2019-05-03T06:29:27.661Z,99.90
2019-05-03T06:32:00.370Z,99.90
2019-05-03T06:34:35.337Z,99.10
2019-05-03T06:37:09.600Z,99.00
2019-05-03T06:39:42.589Z,98.70
2019-05-03T06:42:19.139Z,99.80
2019-05-03T06:44:49.883Z,99.60
2019-05-03T06:47:25.162Z,99.50
2019-05-03T06:49:57.480Z,99.40
2019-05-03T06:52:30.381Z,99.10
2019-05-03T06:55:06.441Z,98.50
2019-05-03T06:57:40.021Z,98.60
2019-05-03T07:00:18.632Z,98.10
2019-05-03T07:02:55.889Z,97.00
2019-05-03T07:05:46.743Z,98.00
2019-05-03T07:08:37.405Z,98.30
2019-05-03T07:11:11.069Z,97.60
2019-05-03T07:13:44.955Z,97.00
2019-05-03T07:16:18.221Z,97.70
2019-05-03T07:18:51.149Z,97.70
2019-05-03T07:21:24.772Z,97.60
2019-05-03T07:23:58.249Z,98.10
2019-05-03T07:26:31.169Z,98.00
2019-05-03T07:29:05.203Z,96.80
2019-05-03T07:31:38.089Z,97.10
2019-05-03T07:34:10.949Z,97.90
2019-05-03T07:36:44.695Z,96.60
2019-05-03T07:39:17.980Z,97.10
2019-05-03T07:41:50.930Z,96.20
2019-05-03T07:44:25.480Z,95.60
2019-05-03T07:46:58.460Z,96.30
2019-05-03T07:49:31.360Z,96.10
2019-05-03T07:52:05.803Z,94.50
2019-05-03T07:54:39.020Z,94.50
2019-05-03T07:57:28.780Z,94.50
2019-05-03T08:00:01.755Z,93.50
2019-05-03T08:02:35.955Z,94.70
2019-05-03T08:05:08.995Z,94.80
2019-05-03T08:07:44.487Z,94.60
2019-05-03T08:10:17.312Z,94.20
2019-05-03T08:12:50.269Z,94.60
2019-05-03T08:15:24.566Z,95.20
2019-05-03T08:17:57.729Z,95.20
2019-05-03T08:20:30.760Z,94.30
2019-05-03T08:23:05.294Z,93.40
2019-05-03T08:25:38.151Z,94.30
2019-05-03T08:28:11.091Z,94.50
2019-05-03T08:30:54.333Z,93.40
2019-05-03T08:33:29.070Z,92.80
2019-05-03T08:36:02.069Z,92.70
2019-05-03T08:38:35.010Z,92.30
2019-05-03T08:41:09.339Z,92.80
2019-05-03T08:43:42.280Z,91.30
2019-05-03T08:46:15.289Z,91.60
2019-05-03T08:48:48.199Z,93.00
2019-05-03T08:51:21.200Z,91.20
2019-05-03T08:53:56.024Z,92.50
2019-05-03T08:56:28.689Z,91.50
2019-05-03T08:59:01.598Z,92.60
2019-05-03T09:01:36.463Z,90.50
2019-05-03T09:04:08.900Z,90.90
2019-05-03T09:06:41.980Z,91.30
2019-05-03T09:09:19.399Z,90.70
2019-05-03T09:11:52.439Z,87.30
2019-05-03T09:14:38.483Z,90.10
2019-05-03T09:16:59.963Z,88.20
2019-05-03T09:19:34.548Z,88.60
2019-05-03T09:22:07.419Z,91.20
2019-05-03T09:24:40.399Z,90.80
2019-05-03T09:27:14.885Z,90.10
2019-05-03T09:29:48.200Z,91.40
2019-05-03T09:32:21.199Z,91.20
2019-05-03T09:34:55.043Z,87.10
2019-05-03T09:37:28.229Z,89.30
2019-05-03T09:40:01.150Z,90.10
2019-05-03T09:42:35.218Z,90.10
2019-05-03T09:45:08.128Z,89.60
2019-05-03T09:47:41.170Z,90.40
2019-05-03T09:50:15.628Z,88.00
2019-05-03T09:52:48.972Z,89.20
2019-05-03T09:55:25.247Z,89.20
2019-05-03T09:57:58.102Z,88.00
2019-05-03T10:00:31.089Z,89.50
2019-05-03T10:03:05.771Z,91.40
2019-05-03T10:05:38.779Z,86.10
2019-05-03T10:08:11.819Z,84.50
2019-05-03T10:11:05.291Z,82.10
2019-05-03T10:13:37.141Z,82.00
2019-05-03T10:16:10.109Z,82.10
2019-05-03T10:18:45.673Z,81.40
2019-05-03T10:21:17.919Z,81.80
2019-05-03T10:23:52.066Z,84.00
2019-05-03T10:26:26.341Z,86.80
2019-05-03T10:28:59.300Z,88.30
2019-05-03T10:31:35.469Z,88.10
2019-05-03T10:34:08.164Z,85.20
2019-05-03T10:36:41.069Z,88.50
2019-05-03T10:39:15.473Z,90.60
2019-05-03T10:41:48.809Z,92.50
2019-05-03T10:44:21.670Z,92.60
2019-05-03T10:46:55.907Z,93.50
2019-05-03T10:49:29.121Z,93.90
2019-05-03T10:52:05.663Z,95.00
2019-05-03T10:54:38.408Z,96.80
2019-05-03T10:57:12.970Z,99.30
2019-05-03T10:59:45.989Z,99.90
2019-05-03T11:02:38.842Z,99.90
2019-05-03T11:05:11.729Z,99.90
2019-05-03T11:07:45.130Z,99.90
2019-05-03T11:10:18.391Z,99.90
2019-05-03T11:12:51.319Z,99.90
2019-05-03T11:15:25.921Z,99.90
2019-05-03T11:17:58.929Z,99.90
2019-05-03T11:20:32.142Z,99.90
2019-05-03T11:23:05.885Z,99.90
2019-05-03T11:25:39.370Z,99.90
2019-05-03T11:28:16.670Z,99.90
2019-05-03T11:30:55.688Z,99.90
2019-05-03T11:33:31.690Z,99.90
2019-05-03T11:36:05.256Z,99.90
2019-05-03T11:38:39.683Z,99.90
2019-05-03T11:41:12.579Z,99.90
2019-05-03T11:43:45.521Z,99.90
2019-05-03T11:46:18.459Z,99.90
2019-05-03T11:48:51.349Z,99.90
2019-05-03T11:51:24.889Z,99.90
2019-05-03T11:53:57.948Z,99.90
2019-05-03T11:56:31.009Z,99.90
2019-05-03T11:59:05.331Z,99.90
2019-05-03T12:01:39.811Z,99.90
2019-05-03T12:04:12.649Z,99.90
2019-05-03T12:06:45.731Z,99.90
2019-05-03T12:09:18.722Z,99.90
2019-05-03T12:11:55.342Z,99.90
2019-05-03T12:14:27.919Z,99.90
2019-05-03T12:17:18.277Z,99.90
2019-05-03T12:19:38.287Z,99.90
2019-05-03T12:22:12.379Z,99.90
2019-05-03T12:24:46.532Z,99.90
2019-05-03T12:27:19.870Z,99.90
2019-05-03T12:29:52.879Z,99.90
2019-05-03T12:32:25.908Z,99.90
2019-05-03T12:34:58.849Z,99.90
2019-05-03T12:37:31.899Z,99.90
2019-05-03T12:40:05.764Z,99.90
2019-05-03T12:42:38.709Z,99.90
2019-05-03T12:45:11.531Z,99.90
2019-05-03T12:47:45.372Z,99.90
2019-05-03T12:50:18.580Z,99.90
2019-05-03T12:52:51.452Z,99.90
2019-05-03T12:55:24.801Z,99.90
2019-05-03T12:57:58.220Z,99.90
2019-05-03T13:00:32.669Z,99.90
2019-05-03T13:03:25.212Z,99.90
2019-05-03T13:05:58.315Z,99.90
2019-05-03T13:08:31.510Z,99.90
2019-05-03T13:11:05.539Z,99.90
2019-05-03T13:13:38.711Z,99.90
2019-05-03T13:16:15.243Z,99.90
2019-05-03T13:18:47.760Z,99.90
2019-05-03T13:21:20.873Z,99.90
2019-05-03T13:23:54.802Z,99.90
2019-05-03T13:26:28.119Z,99.90
2019-05-03T13:29:01.199Z,99.90
2019-05-03T13:31:34.733Z,99.90
2019-05-03T13:34:07.724Z,99.60
2019-05-03T13:36:40.689Z,98.80
2019-05-03T13:39:14.692Z,98.60
2019-05-03T13:41:48.019Z,99.50
2019-05-03T13:44:21.248Z,97.70
2019-05-03T13:46:55.187Z,98.50
2019-05-03T13:49:28.519Z,99.20
2019-05-03T13:52:01.392Z,99.20
2019-05-03T13:54:35.010Z,99.20
2019-05-03T13:57:08.289Z,99.90
2019-05-03T13:59:41.179Z,99.90
2019-05-03T14:02:18.839Z,99.90
2019-05-03T14:04:52.379Z,99.90
2019-05-03T14:07:23.389Z,99.90
2019-05-03T14:09:56.360Z,99.90
2019-05-03T14:12:29.151Z,99.90
2019-05-03T14:15:02.362Z,99.90
2019-05-03T14:17:35.429Z,99.90
2019-05-03T14:20:19.112Z,99.90
2019-05-03T14:22:53.240Z,99.90
2019-05-03T14:25:26.237Z,99.90
2019-05-03T14:27:59.748Z,99.90
2019-05-03T14:30:34.628Z,99.90
2019-05-03T14:33:07.428Z,99.90
2019-05-03T14:35:40.481Z,99.90
2019-05-03T14:38:15.119Z,99.90
2019-05-03T14:40:47.909Z,99.90
2019-05-03T14:43:20.789Z,99.90
2019-05-03T14:45:55.027Z,99.90
2019-05-03T14:48:28.159Z,99.90
2019-05-03T14:51:01.279Z,99.90
2019-05-03T14:53:34.828Z,99.90
2019-05-03T14:56:22.050Z,99.90
2019-05-03T14:59:04.746Z,99.90
2019-05-03T15:01:42.391Z,99.90
2019-05-03T15:04:15.228Z,99.90
2019-05-03T15:06:48.229Z,99.90
2019-05-03T15:09:21.202Z,99.90
2019-05-03T15:11:54.671Z,99.90
2019-05-03T15:14:27.729Z,99.90
2019-05-03T15:17:00.579Z,99.90
2019-05-03T15:19:34.962Z,99.90
2019-05-03T15:22:08.001Z,99.90
2019-05-03T15:24:40.979Z,99.90
2019-05-03T15:27:13.969Z,99.90
2019-05-03T15:29:46.869Z,99.90
2019-05-03T15:32:19.879Z,99.90
2019-05-03T15:34:53.381Z,99.90
2019-05-03T15:37:27.559Z,99.90
2019-05-03T15:40:00.401Z,99.90
2019-05-03T15:42:34.491Z,99.90
2019-05-03T15:45:25.508Z,99.90
2019-05-03T15:48:12.109Z,99.90
2019-05-03T15:50:44.960Z,99.90
2019-05-03T15:53:17.830Z,99.90
2019-05-03T15:55:50.728Z,99.90
2019-05-03T15:58:24.856Z,99.90
2019-05-03T16:00:58.109Z,99.90
2019-05-03T16:03:31.092Z,99.90
2019-05-03T16:06:05.110Z,99.90
2019-05-03T16:08:38.440Z,99.90
2019-05-03T16:11:11.635Z,99.90
2019-05-03T16:13:44.973Z,99.90
2019-05-03T16:16:18.109Z,99.90
2019-05-03T16:18:51.459Z,99.90
2019-05-03T16:21:25.169Z,99.90
2019-05-03T16:23:58.409Z,99.90
2019-05-03T16:26:31.349Z,99.90
2019-05-03T16:29:06.159Z,99.90
2019-05-03T16:31:39.124Z,99.90
2019-05-03T16:34:12.208Z,99.90
2019-05-03T16:36:45.476Z,99.90
2019-05-03T16:39:18.762Z,99.90
2019-05-03T16:41:51.511Z,99.90
2019-05-03T16:44:24.609Z,99.90
2019-05-03T16:46:57.489Z,99.90
2019-05-03T16:49:30.589Z,99.90
2019-05-03T16:52:05.685Z,99.90
2019-05-03T16:54:39.220Z,99.90
2019-05-03T16:57:12.011Z,99.90
2019-05-03T16:59:45.150Z,99.90
2019-05-03T17:02:17.979Z,99.90
2019-05-03T17:04:55.829Z,99.90
2019-05-03T17:07:39.720Z,99.90
2019-05-03T17:10:29.458Z,99.90
2019-05-03T17:13:02.293Z,99.90
2019-05-03T17:15:35.449Z,99.90
2019-05-03T17:18:08.105Z,99.90
2019-05-03T17:20:42.731Z,99.90
2019-05-03T17:23:15.649Z,99.90
2019-05-03T17:25:48.548Z,99.90
2019-05-03T17:28:21.414Z,99.90
2019-05-03T17:30:55.222Z,99.90
2019-05-03T17:33:28.349Z,99.90
2019-05-03T17:36:01.352Z,99.90
2019-05-03T17:38:35.194Z,99.90
2019-05-03T17:41:07.813Z,99.90
2019-05-03T17:43:45.238Z,99.90
2019-05-03T17:46:18.339Z,99.90
2019-05-03T17:48:51.449Z,99.90
2019-05-03T17:51:42.539Z,99.90
2019-05-03T17:54:27.501Z,99.90
2019-05-03T17:57:04.548Z,99.90
2019-05-03T17:59:38.989Z,99.90
2019-05-03T18:02:29.820Z,99.90
2019-05-03T18:05:20.270Z,99.90
2019-05-03T18:07:54.959Z,99.90
2019-05-03T18:10:29.699Z,99.90
2019-05-03T18:13:02.588Z,99.90
2019-05-03T18:15:35.531Z,99.90
2019-05-03T18:18:08.358Z,99.90
2019-05-03T18:20:41.259Z,99.90
2019-05-03T18:23:15.390Z,99.90
2019-05-03T18:25:48.501Z,99.90
2019-05-03T18:28:21.501Z,99.90
2019-05-03T18:30:54.785Z,99.90
2019-05-03T18:33:27.969Z,99.90
2019-05-03T18:36:00.889Z,99.90
2019-05-03T18:38:35.460Z,99.90
2019-05-03T18:41:08.209Z,99.90
2019-05-03T18:43:42.567Z,99.90
2019-05-03T18:46:32.273Z,99.90
2019-05-03T18:49:06.148Z,99.90
2019-05-03T18:51:39.181Z,99.90
2019-05-03T18:54:13.081Z,99.90
2019-05-03T18:56:46.359Z,99.90
2019-05-03T18:59:19.219Z,99.90
2019-05-03T19:01:52.243Z,99.90
2019-05-03T19:04:38.997Z,99.90
2019-05-03T19:07:14.931Z,99.90
2019-05-03T19:10:06.044Z,99.90
2019-05-03T19:12:40.510Z,99.90
2019-05-03T19:15:14.524Z,99.90
2019-05-03T19:17:52.290Z,99.90
2019-05-03T19:20:25.250Z,99.90
2019-05-03T19:22:59.130Z,99.90
2019-05-03T19:25:44.029Z,99.90
2019-05-03T19:28:08.121Z,99.90
2019-05-03T19:30:44.386Z,99.90
2019-05-03T19:33:17.335Z,99.90
2019-05-03T19:35:50.532Z,99.90
2019-05-03T19:38:24.601Z,99.90
2019-05-03T19:40:58.007Z,99.90
2019-05-03T19:43:31.287Z,99.90
2019-05-03T19:46:07.186Z,99.90
2019-05-03T19:48:39.289Z,99.90
2019-05-03T19:51:12.195Z,99.90
2019-05-03T19:53:47.188Z,99.90
2019-05-03T19:56:21.311Z,99.90
2019-05-03T19:58:55.921Z,99.90
2019-05-03T20:01:34.428Z,99.90
2019-05-03T20:04:07.127Z,99.90
2019-05-03T20:06:42.780Z,99.90
2019-05-03T20:09:26.181Z,99.90
2019-05-03T20:11:59.379Z,99.90
2019-05-03T20:14:32.761Z,99.90
2019-05-03T20:17:06.839Z,99.90
2019-05-03T20:19:40.089Z,99.90
2019-05-03T20:22:15.085Z,99.90
2019-05-03T20:24:47.639Z,99.90
2019-05-03T20:27:21.059Z,99.90
2019-05-03T20:29:55.462Z,99.90
2019-05-03T20:32:28.700Z,99.90
2019-05-03T20:35:12.990Z,99.90
2019-05-03T20:37:36.339Z,99.90
2019-05-03T20:40:09.132Z,99.90
2019-05-03T20:42:54.415Z,99.90
2019-05-03T20:45:33.139Z,99.90
2019-05-03T20:48:10.449Z,99.90
2019-05-03T20:50:44.726Z,99.90
2019-05-03T20:53:18.090Z,99.90
2019-05-03T20:55:51.089Z,99.90
2019-05-03T20:58:25.164Z,99.90
2019-05-03T21:00:58.339Z,99.90
2019-05-03T21:03:31.455Z,99.90
2019-05-03T21:06:05.419Z,99.90
2019-05-03T21:08:49.781Z,99.90
2019-05-03T21:11:14.683Z,99.90
2019-05-03T21:13:47.500Z,99.90
2019-05-03T21:16:21.849Z,99.90
2019-05-03T21:18:59.249Z,99.90
2019-05-03T21:21:36.969Z,99.90
2019-05-03T21:24:14.428Z,99.90
2019-05-03T21:26:47.317Z,99.90
2019-05-03T21:29:20.389Z,99.90
2019-05-03T21:31:55.124Z,99.90
2019-05-03T21:34:27.839Z,99.90
2019-05-03T21:37:00.950Z,99.90
2019-05-03T21:39:34.857Z,99.90
2019-05-03T21:42:07.841Z,99.90
2019-05-03T21:44:40.711Z,99.90
2019-05-03T21:47:17.982Z,99.90
2019-05-03T21:49:52.479Z,99.90
2019-05-03T21:52:25.379Z,99.90
2019-05-03T21:54:58.390Z,99.90
2019-05-03T21:57:31.250Z,99.90
2019-05-03T22:00:05.594Z,99.90
2019-05-03T22:02:38.438Z,99.90
2019-05-03T22:05:11.509Z,99.90
2019-05-03T22:07:44.501Z,99.90
2019-05-03T22:10:17.640Z,99.90
2019-05-03T22:12:50.801Z,99.90
2019-05-03T22:15:29.329Z,99.90
2019-05-03T22:18:04.710Z,99.90
2019-05-03T22:20:39.761Z,99.90
2019-05-03T22:23:20.508Z,99.90
2019-05-03T22:25:54.318Z,99.90
2019-05-03T22:28:27.877Z,99.90
2019-05-03T22:31:00.929Z,99.90
2019-05-03T22:33:33.780Z,99.90
2019-05-03T22:36:08.857Z,99.90
2019-05-03T22:38:41.397Z,99.90
2019-05-03T22:41:14.845Z,99.90
2019-05-03T22:43:48.079Z,99.90
2019-05-03T22:46:20.960Z,99.90
2019-05-03T22:48:55.205Z,99.90
2019-05-03T22:51:28.369Z,99.90
2019-05-03T22:54:01.256Z,99.90
2019-05-03T22:56:35.611Z,99.90
2019-05-03T22:59:08.636Z,99.90
2019-05-03T23:01:41.891Z,99.90
2019-05-03T23:04:15.081Z,99.90
2019-05-03T23:06:48.184Z,99.90
2019-05-03T23:09:21.317Z,99.90
2019-05-03T23:11:55.229Z,99.90
2019-05-03T23:14:28.679Z,99.90
2019-05-03T23:17:01.740Z,99.90
2019-05-03T23:19:36.593Z,99.90
2019-05-03T23:22:10.379Z,99.90
2019-05-03T23:24:43.819Z,99.90
2019-05-03T23:27:16.915Z,99.90
2019-05-03T23:29:49.929Z,99.90
2019-05-03T23:32:24.524Z,99.90
2019-05-03T23:34:57.692Z,99.90
2019-05-03T23:37:30.590Z,99.90
2019-05-03T23:40:04.493Z,99.90
2019-05-03T23:42:37.629Z,99.90
2019-05-03T23:45:10.430Z,99.90
2019-05-03T23:47:47.950Z,99.90
2019-05-03T23:50:22.119Z,99.90
2019-05-03T23:52:55.179Z,99.90
2019-05-03T23:55:34.454Z,99.90
2019-05-03T23:58:06.997Z,99.90
